»·PEaware :: AAL624 KABQ-KPHX

AAL624 :: KABQ-KPHX

FLIGHT INFORMATION

Flight Status: Arrived
Operator:
American Airlines
More flights by this operator :: More flights under this callsign
Pilot: Max W. (2591)
Aircraft: AIRBUS A320
(A320)
More flights by this aircraft type
Origin: KABQ Albuquerque Intl Sunport
United States
Destination: KPHX Phoenix Sky Harbor Intl
United States
More flights between these airports :: More routes between these airports
Route: +ADYOS3 ZUN EAGUL6
File this flight plan on PilotEdge
Remarks:
Altitude:
(Current/Filed)
30,000ft
Speed:
(Current/Filed)
450kts
Departed: 17-Oct-19 02:36 PM
Arrived: 17-Oct-19 03:30 PM
Distance/Time
Traveled:
284nm/0:54
Distance/Time
To Go:
Arrived

Flight Plot

Page will automatically refresh every two minutes.

Flight plan parsing failed; only flown route is shown


Map Options




Map Legend


Flown Route
Filed Route
Departure Airport
Arrival Airport
Navaid (VOR, NDB)
Fix

Horizontal Profiles

Position Reports

Time Latitude Longitude Heading Altitude Ground
Speed
17-Oct-19 13:52 35.046888 -106.615888 5 5318ft 0kts
17-Oct-19 13:53 35.046888 -106.615888 5 5318ft 0kts
17-Oct-19 13:54 35.046888 -106.615888 5 5318ft 0kts
17-Oct-19 13:55 35.046888 -106.615888 5 5318ft 0kts
17-Oct-19 13:56 35.046888 -106.615888 5 5318ft 0kts
17-Oct-19 13:57 35.046888 -106.615888 5 5318ft 0kts
17-Oct-19 13:58 35.046888 -106.615888 5 5318ft 0kts
17-Oct-19 13:59 35.046888 -106.615888 5 5318ft 0kts
17-Oct-19 14:00 35.046888 -106.615888 5 5318ft 0kts
17-Oct-19 14:01 35.046888 -106.615888 5 5318ft 0kts
17-Oct-19 14:02 35.046888 -106.615888 5 5318ft 0kts
17-Oct-19 14:03 35.046888 -106.615888 5 5318ft 0kts
17-Oct-19 14:04 35.046888 -106.615888 5 5318ft 0kts
17-Oct-19 14:05 35.046888 -106.615888 5 5318ft 0kts
17-Oct-19 14:06 35.046888 -106.615888 5 5318ft 0kts
17-Oct-19 14:07 35.046888 -106.615888 5 5318ft 0kts
17-Oct-19 14:08 35.046888 -106.615888 5 5318ft 0kts
17-Oct-19 14:09 35.046888 -106.615888 5 5318ft 0kts
17-Oct-19 14:10 35.046888 -106.615888 5 5318ft 0kts
17-Oct-19 14:11 35.046888 -106.615888 5 5318ft 0kts
17-Oct-19 14:12 35.046888 -106.615888 5 5318ft 0kts
17-Oct-19 14:13 35.046888 -106.615888 5 5318ft 0kts
17-Oct-19 14:14 35.046888 -106.615888 5 5318ft 0kts
17-Oct-19 14:15 35.046888 -106.615888 5 5318ft 0kts
17-Oct-19 14:16 35.046888 -106.615888 5 5318ft 0kts
17-Oct-19 14:17 35.046888 -106.615888 5 5318ft 0kts
17-Oct-19 14:18 35.046741 -106.615915 14 5318ft 2kts
17-Oct-19 14:19 35.046281 -106.616224 44 5318ft 2kts
17-Oct-19 14:20 35.046065 -106.616522 48 5318ft 0kts
17-Oct-19 14:21 35.046065 -106.616522 48 5318ft 0kts
17-Oct-19 14:22 35.046065 -106.616522 48 5318ft 0kts
17-Oct-19 14:23 35.046065 -106.616522 48 5318ft 0kts
17-Oct-19 14:24 35.046065 -106.616522 48 5318ft 0kts
17-Oct-19 14:25 35.046065 -106.616522 48 5318ft 0kts
17-Oct-19 14:26 35.046065 -106.616522 48 5318ft 0kts
17-Oct-19 14:27 35.046065 -106.616522 48 5318ft 0kts
17-Oct-19 14:28 35.046065 -106.616522 48 5318ft 0kts
17-Oct-19 14:29 35.045865 -106.615715 123 5318ft 7kts
17-Oct-19 14:30 35.044578 -106.613734 181 5318ft 15kts
17-Oct-19 14:31 35.042441 -106.612636 90 5318ft 6kts
17-Oct-19 14:32 35.042419 -106.610283 90 5318ft 8kts
17-Oct-19 14:33 35.042410 -106.608470 89 5318ft 0kts
17-Oct-19 14:34 35.041626 -106.607208 223 5318ft 0kts
17-Oct-19 14:35 35.028802 -106.622672 221 5476ft 174kts
17-Oct-19 14:36 35.013299 -106.680307 268 8122ft 219kts
17-Oct-19 14:37 35.018517 -106.767348 279 9899ft 289kts
17-Oct-19 14:38 35.033769 -106.850425 279 11317ft 334kts
17-Oct-19 14:39 35.046348 -106.971025 265 12707ft 375kts
17-Oct-19 14:40 35.042593 -107.099398 265 14954ft 381kts
17-Oct-19 14:41 35.038662 -107.229695 265 16947ft 387kts
17-Oct-19 14:42 35.034591 -107.362167 265 18711ft 393kts
17-Oct-19 14:43 35.030349 -107.496584 264 20276ft 400kts
17-Oct-19 14:44 35.025903 -107.632556 264 21698ft 405kts
17-Oct-19 14:45 35.021329 -107.767799 264 23020ft 409kts
17-Oct-19 14:46 35.016477 -107.906627 264 24243ft 413kts
17-Oct-19 14:47 35.011399 -108.047331 264 25355ft 417kts
17-Oct-19 14:48 35.006107 -108.189349 264 26347ft 421kts
17-Oct-19 14:49 35.000683 -108.330506 264 27732ft 413kts
17-Oct-19 14:50 34.995186 -108.469302 264 29024ft 406kts
17-Oct-19 14:51 34.989644 -108.605375 264 30043ft 401kts
17-Oct-19 14:52 34.984204 -108.735517 263 30049ft 400kts
17-Oct-19 14:53 34.978391 -108.871083 263 30037ft 401kts
17-Oct-19 14:54 34.972434 -109.006440 263 30024ft 400kts
17-Oct-19 14:55 34.964705 -109.141616 256 30017ft 396kts
17-Oct-19 14:56 34.925514 -109.265143 245 30001ft 391kts
17-Oct-19 14:57 34.883500 -109.380158 245 29969ft 392kts
17-Oct-19 14:58 34.838951 -109.501733 245 29988ft 394kts
17-Oct-19 14:59 34.794325 -109.623048 245 30018ft 395kts
17-Oct-19 15:00 34.751067 -109.740142 244 30031ft 395kts
17-Oct-19 15:01 34.705861 -109.862039 244 30043ft 395kts
17-Oct-19 15:02 34.660662 -109.983570 244 30035ft 394kts
17-Oct-19 15:03 34.617319 -110.099689 244 30019ft 393kts
17-Oct-19 15:04 34.572225 -110.220058 244 30012ft 393kts
17-Oct-19 15:05 34.526890 -110.340626 244 30016ft 393kts
17-Oct-19 15:06 34.481409 -110.461121 244 30016ft 393kts
17-Oct-19 15:07 34.435796 -110.581468 244 30001ft 392kts
17-Oct-19 15:08 34.394291 -110.690504 244 28522ft 356kts
17-Oct-19 15:10 34.351559 -110.796800 234 26450ft 349kts
17-Oct-19 15:11 34.286974 -110.882416 227 24385ft 342kts
17-Oct-19 15:12 34.222563 -110.965642 227 22355ft 335kts
17-Oct-19 15:13 34.159737 -111.046645 226 20342ft 329kts
17-Oct-19 15:14 34.098915 -111.124870 226 18771ft 311kts
17-Oct-19 15:15 34.040089 -111.200387 225 16852ft 308kts
17-Oct-19 15:16 33.981817 -111.275028 225 14972ft 304kts
17-Oct-19 15:17 33.924602 -111.348151 225 13337ft 295kts
17-Oct-19 15:18 33.870013 -111.413584 214 12112ft 278kts
17-Oct-19 15:19 33.807870 -111.466883 215 10689ft 272kts
17-Oct-19 15:20 33.754525 -111.512742 216 9467ft 267kts
17-Oct-19 15:21 33.695488 -111.563430 216 8488ft 248kts
17-Oct-19 15:22 33.642149 -111.609129 216 8082ft 234kts
17-Oct-19 15:23 33.590794 -111.652154 215 7105ft 236kts
17-Oct-19 15:24 33.538991 -111.695582 215 6053ft 235kts
17-Oct-19 15:25 33.485703 -111.740581 215 4981ft 233kts
17-Oct-19 15:26 33.446483 -111.800827 245 4093ft 229kts
17-Oct-19 15:27 33.440803 -111.869973 268 3156ft 180kts
17-Oct-19 15:28 33.440785 -111.921829 267 2282ft 143kts
17-Oct-19 15:28 33.440803 -111.961836 267 1646ft 144kts
17-Oct-19 15:30 33.440101 -112.001274 142 1118ft 14kts

Navigation Log

Ident Type
Flight plan parsing failed, navigation log unavailable